Time;durP1;ratioP1;P1;durP2;ratioP2;P2;SDS_P1;SDS_P2;PMS_P1;PMS_P2;Temp;Humidity;BMP_temperature;BMP_pressure;BME280_temperature;BME280_humidity;BME280_pressure;Samples;Min_cycle;Max_cycle;Signal;HPM_P1;HPM_P2
2023/05/15 04:31:57;;;;;;;;;53.50;38.50;;;;;13.49;65.57;101286.03;1421465;26;46063;-82
2023/05/15 04:34:23;;;;;;;;;50.50;38.50;;;;;13.25;65.85;101255.78;5054995;28;45534;-82
2023/05/15 04:36:50;;;;;;;;;46.25;35.75;;;;;13.17;66.43;101271.44;5055037;28;45460;-84
2023/05/15 04:39:15;;;;;;;;;45.75;38.00;;;;;12.96;66.88;101234.72;5036782;28;45361;-82
2023/05/15 04:41:40;;;;;;;;;42.50;34.50;;;;;13.04;67.42;101259.47;5055017;28;45316;-82
2023/05/15 04:44:06;;;;;;;;;49.00;39.25;;;;;13.10;67.47;101268.09;5054840;28;45289;-82
2023/05/15 04:46:33;;;;;;;;;43.75;36.75;;;;;13.21;67.68;101284.66;5054827;28;45383;-81
2023/05/15 04:48:59;;;;;;;;;40.00;35.00;;;;;13.06;67.66;101261.16;5055118;28;45352;-82
2023/05/15 04:51:24;;;;;;;;;51.00;40.25;;;;;12.87;67.69;101242.31;5036339;28;45927;-82
2023/05/15 04:53:50;;;;;;;;;39.00;35.00;;;;;13.13;67.95;101284.16;5036506;28;48607;-83
2023/05/15 04:56:15;;;;;;;;;47.00;39.25;;;;;12.75;68.26;101240.22;5053404;28;45513;-80
2023/05/15 04:58:40;;;;;;;;;46.25;38.25;;;;;12.87;68.20;101246.81;5054400;28;45311;-82
2023/05/15 05:01:06;;;;;;;;;40.25;34.00;;;;;13.16;68.01;101284.03;5052746;28;45479;-83
2023/05/15 05:03:31;;;;;;;;;48.00;39.00;;;;;12.94;67.88;101240.19;5055660;28;46527;-83
2023/05/15 05:05:57;;;;;;;;;45.75;36.25;;;;;13.02;68.05;101266.72;5054274;28;45712;-75
2023/05/15 05:08:22;;;;;;;;;39.75;36.00;;;;;13.15;68.72;101287.66;5059723;28;45493;-81
2023/05/15 05:10:48;;;;;;;;;40.25;35.00;;;;;13.15;68.13;101274.19;5058179;28;45590;-81
2023/05/15 05:13:13;;;;;;;;;40.50;35.00;;;;;13.03;67.90;101255.91;5038821;28;46930;-76
2023/05/15 05:15:39;;;;;;;;;40.25;35.25;;;;;13.18;68.11;101290.19;5053938;28;45695;-75
2023/05/15 05:18:04;;;;;;;;;50.75;38.25;;;;;13.04;68.20;101284.56;5054827;28;45438;-75
2023/05/15 05:20:30;;;;;;;;;41.75;34.50;;;;;13.09;68.17;101284.34;5053779;28;45594;-75
2023/05/15 05:22:55;;;;;;;;;40.25;35.00;;;;;13.13;68.43;101272.47;5054103;28;46173;-79
2023/05/15 05:25:20;;;;;;;;;39.75;34.00;;;;;13.28;67.97;101290.63;5053988;28;45402;-78
2023/05/15 05:27:46;;;;;;;;;44.75;36.25;;;;;13.31;67.67;101278.84;5054169;28;45540;-77
2023/05/15 05:30:11;;;;;;;;;40.50;34.75;;;;;13.25;67.83;101269.25;5053772;28;45368;-76
2023/05/15 05:32:37;;;;;;;;;41.50;35.50;;;;;13.23;67.46;101269.31;5053288;28;45989;-73
2023/05/15 05:35:03;;;;;;;;;39.75;34.75;;;;;13.28;68.08;101287.94;5053489;28;45310;-75
2023/05/15 05:37:28;;;;;;;;;41.25;35.00;;;;;13.33;67.71;101279.63;5053112;28;45385;-73
2023/05/15 05:39:53;;;;;;;;;40.75;35.00;;;;;13.35;68.08;101273.25;5053685;28;45212;-74
2023/05/15 05:42:19;;;;;;;;;36.75;33.75;;;;;13.43;68.66;101283.63;5054069;28;45978;-77
2023/05/15 05:44:44;;;;;;;;;37.00;34.00;;;;;13.50;68.33;101288.63;5053762;28;45346;-80
2023/05/15 05:47:09;;;;;;;;;42.75;35.25;;;;;13.57;68.98;101291.91;5055071;28;45376;-74
2023/05/15 05:49:35;;;;;;;;;35.25;34.00;;;;;13.53;69.07;101280.38;5055602;28;45410;-78
2023/05/15 05:52:07;;;;;;;;;44.00;36.25;;;;;13.60;69.36;101280.97;5054471;28;45482;-76
2023/05/15 05:54:32;;;;;;;;;42.50;35.00;;;;;13.68;69.35;101294.06;5054418;28;45285;-77
2023/05/15 05:56:58;;;;;;;;;42.25;35.00;;;;;13.49;69.11;101242.91;5057030;28;45356;-77
2023/05/15 05:59:23;;;;;;;;;37.00;32.25;;;;;13.72;69.96;101280.34;5053592;28;45336;-81
2023/05/15 06:01:49;;;;;;;;;35.25;31.75;;;;;13.75;69.90;101288.28;5053766;28;46179;-79
2023/05/15 06:04:15;;;;;;;;;40.50;31.00;;;;;13.74;70.22;101278.47;5067777;28;45310;-79
2023/05/15 06:06:40;;;;;;;;;42.25;35.75;;;;;13.79;70.10;101279.09;5055301;28;45364;-79
2023/05/15 06:09:05;;;;;;;;;38.00;31.75;;;;;13.81;70.21;101271.81;5055199;28;45513;-78
2023/05/15 06:11:31;;;;;;;;;41.25;34.50;;;;;13.89;70.40;101283.06;5055127;28;46078;-78
2023/05/15 06:13:57;;;;;;;;;45.25;33.75;;;;;13.90;70.37;101276.72;5055239;28;45295;-79
2023/05/15 06:16:22;;;;;;;;;39.00;33.25;;;;;13.89;70.00;101295.66;5055960;28;45303;-79
2023/05/15 06:18:48;;;;;;;;;42.00;34.75;;;;;13.82;71.10;101291.53;5056547;28;45381;-80
2023/05/15 06:21:13;;;;;;;;;36.25;28.25;;;;;13.66;71.94;101293.25;5057075;28;50882;-79
2023/05/15 06:23:38;;;;;;;;;44.75;36.00;;;;;13.56;72.09;101291.03;5057635;28;45427;-80
2023/05/15 06:26:04;;;;;;;;;40.75;36.25;;;;;13.36;72.03;101257.94;5060894;28;45413;-79
2023/05/15 06:28:29;;;;;;;;;39.75;34.75;;;;;13.68;71.86;101310.22;5061150;28;45303;-79
2023/05/15 06:30:55;;;;;;;;;37.75;34.00;;;;;13.72;71.94;101301.03;5043958;28;48378;-80
2023/05/15 06:33:21;;;;;;;;;39.25;34.50;;;;;13.82;71.61;101311.28;5060877;28;45560;-79
2023/05/15 06:35:46;;;;;;;;;40.50;33.75;;;;;13.76;71.38;101300.81;5060428;28;45230;-80
2023/05/15 06:38:12;;;;;;;;;40.00;36.50;;;;;13.81;71.70;101308.66;5057423;28;45542;-80
2023/05/15 06:40:37;;;;;;;;;48.25;40.25;;;;;13.84;71.23;101312.09;5056566;28;46096;-79
2023/05/15 06:43:03;;;;;;;;;31.50;28.75;;;;;13.79;71.37;101303.34;5056348;28;45327;-80
2023/05/15 06:45:28;;;;;;;;;31.50;27.50;;;;;13.84;71.42;101311.22;5038913;28;45240;-79
2023/05/15 06:47:53;;;;;;;;;39.50;35.25;;;;;13.77;72.04;101291.78;5056398;28;45426;-77
2023/05/15 06:50:19;;;;;;;;;48.00;37.25;;;;;13.94;71.54;101307.97;5054948;28;45387;-76
2023/05/15 06:52:44;;;;;;;;;44.75;35.75;;;;;13.81;71.46;101298.75;5054576;28;45319;-78
2023/05/15 06:55:09;;;;;;;;;42.00;34.50;;;;;13.70;72.04;101290.31;5038041;28;45684;-78
2023/05/15 06:57:35;;;;;;;;;45.50;36.50;;;;;13.78;71.87;101298.91;5055953;28;45200;-79
2023/05/15 07:00:00;;;;;;;;;37.00;32.50;;;;;13.74;72.32;101300.00;5056440;28;45601;-77
2023/05/15 07:02:25;;;;;;;;;30.50;29.75;;;;;13.64;71.79;101290.63;5053869;28;46789;-77
2023/05/15 07:04:51;;;;;;;;;35.75;31.50;;;;;13.72;71.83;101290.25;5056823;28;45537;-78
2023/05/15 07:07:17;;;;;;;;;40.50;32.00;;;;;13.77;72.02;101291.78;5051270;28;45593;-77
2023/05/15 07:09:47;;;;;;;;;34.75;33.75;;;;;13.77;71.50;101290.91;5036782;28;48450;-78
2023/05/15 07:12:12;;;;;;;;;35.75;32.00;;;;;13.82;71.40;101280.75;5055829;28;45512;-77
2023/05/15 07:14:37;;;;;;;;;42.75;34.75;;;;;13.88;71.41;101277.75;5056382;28;45388;-78
2023/05/15 07:17:03;;;;;;;;;40.75;34.25;;;;;14.03;71.08;101304.78;5055409;28;56747;-77
2023/05/15 07:19:28;;;;;;;;;33.00;32.50;;;;;13.93;70.94;101290.06;5055841;28;46802;-78
2023/05/15 07:21:54;;;;;;;;;36.25;30.50;;;;;13.91;72.02;101291.94;5055849;28;45502;-78
2023/05/15 07:24:19;;;;;;;;;39.25;33.75;;;;;13.73;71.92;101279.41;5056295;28;45208;-76
2023/05/15 07:26:44;;;;;;;;;29.00;29.00;;;;;13.88;72.06;101291.22;5055756;28;45410;-77
2023/05/15 07:29:10;;;;;;;;;34.25;31.25;;;;;14.03;71.63;101301.25;5037263;28;47350;-81
2023/05/15 07:31:36;;;;;;;;;33.00;31.00;;;;;14.01;71.81;101298.63;5052783;28;45418;-80
2023/05/15 07:34:01;;;;;;;;;31.75;30.00;;;;;13.96;71.85;101291.69;5053877;28;45422;-80
2023/05/15 07:36:27;;;;;;;;;34.00;30.75;;;;;14.07;71.49;101297.41;5055126;28;45451;-79
2023/05/15 07:38:52;;;;;;;;;33.75;31.25;;;;;14.07;71.24;101272.28;5055802;28;46068;-78
2023/05/15 07:41:17;;;;;;;;;28.00;26.25;;;;;14.18;71.10;101281.56;5055060;28;45374;-79
2023/05/15 07:43:43;;;;;;;;;36.00;30.75;;;;;14.33;70.95;101282.59;5055023;28;45307;-81
2023/05/15 07:46:08;;;;;;;;;34.50;31.25;;;;;14.47;70.74;101304.31;5055009;28;45493;-80
2023/05/15 07:48:33;;;;;;;;;37.75;33.00;;;;;14.46;70.73;101294.47;5055185;28;45988;-79
2023/05/15 07:50:58;;;;;;;;;30.75;28.50;;;;;14.53;70.13;101295.94;5054958;28;45357;-79
2023/05/15 07:53:24;;;;;;;;;35.00;32.00;;;;;14.54;70.18;101311.16;5055780;28;45319;-79
2023/05/15 07:55:49;;;;;;;;;30.00;22.75;;;;;14.37;70.81;101298.50;5055206;28;45524;-80
2023/05/15 07:58:16;;;;;;;;;35.00;29.75;;;;;14.38;71.21;101299.38;5053837;28;47421;-80
2023/05/15 08:00:41;;;;;;;;;33.50;27.75;;;;;14.26;71.89;101298.22;5055950;28;45449;-80
2023/05/15 08:03:07;;;;;;;;;35.50;32.25;;;;;14.13;72.09;101278.22;5066204;28;45289;-79
2023/05/15 08:05:32;;;;;;;;;34.00;28.25;;;;;14.38;71.51;101308.38;5057742;28;45321;-80
2023/05/15 08:07:59;;;;;;;;;37.75;32.00;;;;;14.33;71.14;101287.97;5036354;28;48478;-81
2023/05/15 08:10:24;;;;;;;;;33.25;31.50;;;;;14.52;71.12;101313.06;5037068;28;45363;-82
2023/05/15 08:12:49;;;;;;;;;39.50;32.75;;;;;14.53;71.08;101287.84;5056268;28;45483;-79
2023/05/15 08:15:15;;;;;;;;;33.00;30.75;;;;;14.53;70.92;101271.66;5056266;28;45491;-78
2023/05/15 08:17:41;;;;;;;;;38.50;34.75;;;;;14.65;70.39;101284.47;5055924;28;45639;-80
2023/05/15 08:20:06;;;;;;;;;36.25;32.75;;;;;14.69;70.46;101286.06;5055672;28;45377;-80
2023/05/15 08:22:32;;;;;;;;;40.75;34.00;;;;;14.87;70.30;101302.19;5055110;28;45473;-79
2023/05/15 08:24:58;;;;;;;;;50.75;34.25;;;;;14.93;70.19;101301.84;5055319;28;45430;-81
2023/05/15 08:27:23;;;;;;;;;38.50;32.50;;;;;14.76;70.70;101292.84;5055989;28;45923;-79
2023/05/15 08:29:49;;;;;;;;;43.50;35.50;;;;;14.72;70.54;101269.66;5052178;28;45310;-80
2023/05/15 08:32:14;;;;;;;;;42.75;35.25;;;;;14.89;70.44;101293.03;5049606;28;45918;-79
2023/05/15 08:34:39;;;;;;;;;32.25;29.00;;;;;14.92;70.33;101284.78;5055658;28;45577;-77
2023/05/15 08:37:05;;;;;;;;;48.50;38.75;;;;;14.97;70.02;101281.84;5055772;28;46005;-80
2023/05/15 08:39:31;;;;;;;;;44.25;33.50;;;;;15.10;69.74;101281.06;5054694;28;45278;-80
2023/05/15 08:42:31;;;;;;;;;32.50;31.00;;;;;15.21;69.52;101287.69;5055016;28;45407;-79
2023/05/15 08:44:58;;;;;;;;;38.00;33.50;;;;;15.25;69.24;101276.63;5054939;28;45766;-81
2023/05/15 08:47:27;;;;;;;;;39.75;33.75;;;;;15.25;68.50;101257.69;5054619;28;45569;-85
2023/05/15 08:50:06;;;;;;;;;42.00;34.25;;;;;15.42;68.52;101275.66;5055234;28;45406;-80
2023/05/15 08:52:32;;;;;;;;;40.75;35.00;;;;;15.39;68.53;101263.22;5056163;28;45503;-81
2023/05/15 08:54:58;;;;;;;;;40.00;33.50;;;;;15.63;68.48;101277.16;5054506;28;45647;-79
2023/05/15 08:57:26;;;;;;;;;34.50;30.75;;;;;15.76;67.80;101277.28;5054247;28;46676;-79
2023/05/15 08:59:53;;;;;;;;;43.50;36.00;;;;;15.75;67.34;101270.13;5054203;28;45460;-80
2023/05/15 09:02:19;;;;;;;;;42.50;36.75;;;;;15.84;67.16;101277.72;5058051;28;45368;-78
2023/05/15 09:04:45;;;;;;;;;46.00;36.75;;;;;15.70;67.19;101256.03;5025407;28;46360;-79
2023/05/15 09:07:11;;;;;;;;;45.50;35.75;;;;;15.77;67.08;101281.75;5051049;28;45734;-79
2023/05/15 09:09:38;;;;;;;;;42.00;34.75;;;;;15.82;67.45;101279.66;5054204;28;45494;-79
2023/05/15 09:12:04;;;;;;;;;43.50;34.00;;;;;15.93;67.19;101279.88;5053853;28;45390;-79
2023/05/15 09:14:29;;;;;;;;;45.00;34.25;;;;;15.94;67.08;101259.09;5054186;28;45449;-82
2023/05/15 09:16:54;;;;;;;;;36.75;31.50;;;;;16.07;66.56;101262.84;5036058;28;46978;-80
2023/05/15 09:19:21;;;;;;;;;45.50;38.00;;;;;15.93;66.13;101227.63;5053875;28;45305;-80
2023/05/15 09:21:48;;;;;;;;;44.75;37.00;;;;;16.23;65.98;101267.22;5054531;28;45202;-80
2023/05/15 09:24:22;;;;;;;;;44.00;32.25;;;;;16.33;65.18;101272.94;5054753;28;45630;-77
2023/05/15 09:27:02;;;;;;;;;45.50;36.75;;;;;16.39;65.45;101272.56;5055250;28;46256;-78
2023/05/15 09:29:29;;;;;;;;;40.00;35.00;;;;;16.45;64.90;101268.59;5057955;28;45367;-80
2023/05/15 09:31:55;;;;;;;;;44.25;34.50;;;;;16.46;64.99;101254.09;5056316;28;45430;-81
2023/05/15 09:34:31;;;;;;;;;45.50;35.75;;;;;16.56;64.91;101255.25;5057306;28;45419;-79
2023/05/15 09:36:57;;;;;;;;;51.50;37.00;;;;;16.61;65.01;101234.22;5038576;28;47835;-79
2023/05/15 09:39:23;;;;;;;;;45.00;33.50;;;;;16.74;64.04;101240.59;5056971;28;45307;-80
2023/05/15 09:41:48;;;;;;;;;43.50;35.00;;;;;16.96;63.53;101267.19;5054458;28;45348;-81
2023/05/15 09:44:19;;;;;;;;;43.75;35.50;;;;;16.96;63.41;101246.38;5053568;28;45261;-80
2023/05/15 09:46:45;;;;;;;;;37.25;34.00;;;;;17.14;63.65;101255.16;5054474;28;45865;-81
2023/05/15 09:49:11;;;;;;;;;39.00;35.50;;;;;17.00;63.03;101217.28;5053983;28;45465;-81
2023/05/15 09:51:37;;;;;;;;;46.75;37.75;;;;;17.21;62.86;101242.06;5054500;28;45232;-81
2023/05/15 09:54:02;;;;;;;;;52.50;37.00;;;;;17.25;62.45;101258.03;5053969;28;45643;-80
2023/05/15 09:56:28;;;;;;;;;51.00;37.50;;;;;17.27;62.41;101266.91;5053188;28;45422;-77
2023/05/15 09:59:00;;;;;;;;;43.25;35.00;;;;;17.28;62.28;101265.09;5053383;28;45316;-78
2023/05/15 10:01:26;;;;;;;;;44.75;35.50;;;;;17.28;61.86;101251.53;5057835;28;45462;-79
2023/05/15 10:04:02;;;;;;;;;44.25;36.75;;;;;17.43;61.94;101272.22;5042232;28;47369;-78
2023/05/15 10:06:39;;;;;;;;;31.75;31.50;;;;;17.46;61.73;101274.72;5057420;28;46006;-79
2023/05/15 10:09:05;;;;;;;;;45.75;35.25;;;;;17.42;61.49;101266.91;5054709;28;45586;-81
2023/05/15 10:11:34;;;;;;;;;43.75;38.00;;;;;17.45;61.54;101280.22;5056214;28;45477;-80
2023/05/15 10:14:01;;;;;;;;;45.00;36.25;;;;;17.39;61.29;101286.94;5055958;28;45595;-80
2023/05/15 10:16:27;;;;;;;;;46.75;38.75;;;;;17.33;61.63;101277.38;5057029;28;46441;-81
2023/05/15 10:18:56;;;;;;;;;43.75;37.00;;;;;17.14;62.09;101255.16;5055852;28;46094;-78
2023/05/15 10:21:24;;;;;;;;;47.75;37.75;;;;;17.23;62.55;101273.53;5038177;28;45591;-79
2023/05/15 10:23:51;;;;;;;;;46.25;38.25;;;;;17.31;62.76;101278.44;5056819;28;45304;-79
2023/05/15 10:26:23;;;;;;;;;43.75;36.50;;;;;17.34;62.31;101275.53;5029681;28;46424;-76
2023/05/15 10:28:50;;;;;;;;;36.25;33.50;;;;;17.42;62.23;101280.47;5024361;28;45598;-82
2023/05/15 10:31:18;;;;;;;;;48.50;37.25;;;;;17.45;62.16;101275.69;5045140;28;45349;-73
2023/05/15 10:33:44;;;;;;;;;38.50;34.75;;;;;17.45;62.07;101261.25;5025836;28;46569;-74
2023/05/15 10:36:10;;;;;;;;;49.00;36.50;;;;;17.61;61.41;101270.09;5044191;28;46132;-75
2023/05/15 10:38:37;;;;;;;;;48.75;37.75;;;;;17.54;61.55;101256.09;5045105;28;46171;-74
2023/05/15 10:41:04;;;;;;;;;42.25;35.25;;;;;17.45;61.58;101250.41;5044724;28;45451;-76
2023/05/15 10:43:30;;;;;;;;;40.25;35.25;;;;;17.62;62.02;101267.34;5046953;28;45759;-74
2023/05/15 10:45:56;;;;;;;;;39.75;34.50;;;;;17.74;61.78;101274.66;5044868;28;45423;-73
2023/05/15 10:48:22;;;;;;;;;43.25;36.00;;;;;17.76;61.35;101255.59;5045165;28;45454;-75
2023/05/15 10:50:48;;;;;;;;;43.25;35.50;;;;;17.89;60.82;101263.72;5027913;28;45541;-72
2023/05/15 10:53:15;;;;;;;;;46.50;38.50;;;;;18.07;60.60;101259.78;5047903;28;45225;-78
2023/05/15 10:55:40;;;;;;;;;38.75;33.00;;;;;18.17;59.72;101270.88;5055209;28;46259;-77
2023/05/15 10:58:09;;;;;;;;;36.50;30.25;;;;;18.18;59.75;101269.88;5056028;28;45379;-77
2023/05/15 11:00:40;;;;;;;;;41.50;33.75;;;;;18.12;59.50;101253.03;5037711;28;45312;-76
2023/05/15 11:03:06;;;;;;;;;32.00;30.25;;;;;18.22;59.19;101266.84;5067175;28;45491;-77
2023/05/15 11:06:11;;;;;;;;;39.00;32.00;;;;;18.13;58.96;101262.06;5058809;28;46093;-78
2023/05/15 11:08:39;;;;;;;;;42.75;34.75;;;;;18.05;59.19;101259.88;5056279;28;45587;-77
2023/05/15 11:11:05;;;;;;;;;32.75;31.75;;;;;18.07;58.88;101263.34;5055610;28;45399;-78
2023/05/15 11:14:11;;;;;;;;;39.75;33.25;;;;;18.02;59.70;101262.81;5049410;28;45442;-72
2023/05/15 11:16:51;;;;;;;;;35.75;32.25;;;;;18.09;59.52;101265.97;5050433;28;46726;-72
2023/05/15 11:19:33;;;;;;;;;43.75;34.00;;;;;18.08;59.17;101261.50;5055412;28;45448;-75
2023/05/15 11:21:59;;;;;;;;;43.25;35.50;;;;;18.04;59.60;101252.69;5055178;28;45585;-71
2023/05/15 11:24:32;;;;;;;;;38.75;32.00;;;;;18.03;60.06;101253.66;5051311;28;45510;-70
2023/05/15 11:27:03;;;;;;;;;40.50;33.50;;;;;18.12;59.76;101257.59;5049125;28;45350;-71
2023/05/15 11:29:30;;;;;;;;;36.50;34.00;;;;;18.21;59.37;101262.38;5046471;28;45392;-70
2023/05/15 11:31:55;;;;;;;;;38.75;32.00;;;;;18.14;59.30;101255.66;5047289;28;45371;-72
2023/05/15 11:34:34;;;;;;;;;42.75;35.00;;;;;18.15;59.98;101266.41;5051814;28;45706;-75
2023/05/15 11:37:00;;;;;;;;;39.75;32.50;;;;;18.13;59.74;101256.63;5053660;28;45695;-74
2023/05/15 11:39:26;;;;;;;;;40.00;35.25;;;;;17.99;59.68;101257.59;5053575;28;45513;-74
2023/05/15 11:41:52;;;;;;;;;39.25;35.00;;;;;17.95;60.04;101255.19;5035093;28;45826;-75
2023/05/15 11:44:20;;;;;;;;;37.00;32.00;;;;;17.98;60.46;101260.41;5055025;28;45564;-73
2023/05/15 11:46:46;;;;;;;;;38.50;33.00;;;;;18.01;60.43;101255.66;5054228;28;45852;-74
2023/05/15 11:49:11;;;;;;;;;37.00;33.25;;;;;17.98;60.06;101250.41;5054931;28;45454;-72
2023/05/15 11:51:41;;;;;;;;;35.25;32.00;;;;;17.98;60.12;101249.53;5054924;28;45260;-74
2023/05/15 11:54:10;;;;;;;;;35.00;31.25;;;;;18.05;60.46;101248.13;5055112;28;45419;-73
2023/05/15 11:56:42;;;;;;;;;34.25;30.25;;;;;18.05;61.54;101254.44;5055223;28;46170;-73
2023/05/15 11:59:11;;;;;;;;;36.25;31.25;;;;;18.03;62.40;101247.41;5054628;28;45442;-76
2023/05/15 12:01:46;;;;;;;;;39.50;34.00;;;;;17.96;63.09;101259.63;5055242;28;45373;-75
2023/05/15 12:04:15;;;;;;;;;40.25;33.25;;;;;17.92;62.90;101259.00;5068469;28;45557;-75
2023/05/15 12:06:43;;;;;;;;;33.50;31.50;;;;;17.91;63.84;101248.22;5054966;28;46631;-75
2023/05/15 12:09:17;;;;;;;;;41.50;36.00;;;;;17.94;63.99;101254.34;5054911;28;45409;-75
2023/05/15 12:11:55;;;;;;;;;35.00;32.75;;;;;17.99;63.92;101252.16;5054957;28;45394;-76
2023/05/15 12:14:30;;;;;;;;;32.00;29.50;;;;;18.05;63.80;101246.31;5055058;28;45387;-77
2023/05/15 12:17:05;;;;;;;;;40.50;32.75;;;;;18.02;63.86;101238.41;5054819;28;46626;-75
2023/05/15 12:19:33;;;;;;;;;33.00;31.00;;;;;18.15;63.60;101241.97;5054841;28;45295;-76
2023/05/15 12:21:59;;;;;;;;;33.50;32.50;;;;;18.21;63.93;101251.53;5053669;28;45497;-75
2023/05/15 12:24:25;;;;;;;;;31.50;30.00;;;;;18.27;64.44;101242.97;5037050;28;46759;-77
2023/05/15 12:26:51;;;;;;;;;32.50;30.00;;;;;18.31;64.34;101249.91;5054529;28;46324;-76
2023/05/15 12:29:17;;;;;;;;;38.75;30.25;;;;;18.40;65.00;101257.41;5054649;28;45498;-76
2023/05/15 12:31:43;;;;;;;;;34.50;31.25;;;;;18.44;64.95;101264.38;5054531;28;45501;-75
2023/05/15 12:34:09;;;;;;;;;30.75;25.75;;;;;18.40;64.95;101264.69;5054610;28;45371;-76
2023/05/15 12:36:34;;;;;;;;;34.25;30.75;;;;;18.33;65.57;101260.69;5054360;28;45549;-77
2023/05/15 12:39:06;;;;;;;;;34.50;31.50;;;;;18.24;65.84;101254.03;5054541;28;45407;-76
2023/05/15 12:41:32;;;;;;;;;36.00;32.00;;;;;18.13;65.97;101257.50;5054074;28;45760;-77
2023/05/15 12:43:57;;;;;;;;;29.75;28.50;;;;;18.13;65.86;101260.22;5054582;28;45428;-77
2023/05/15 12:46:29;;;;;;;;;33.50;31.75;;;;;17.95;66.13;101234.34;5054150;28;46367;-76
2023/05/15 12:48:57;;;;;;;;;31.50;26.25;;;;;18.08;66.68;101259.66;5054346;28;45342;-74
2023/05/15 12:51:22;;;;;;;;;38.25;33.00;;;;;18.01;65.96;101260.19;5054421;28;45467;-76
2023/05/15 12:53:51;;;;;;;;;33.00;32.25;;;;;17.86;67.18;101232.28;5054112;28;45591;-76
2023/05/15 12:56:17;;;;;;;;;31.25;28.25;;;;;18.09;66.46;101260.53;5053959;28;46818;-76
2023/05/15 12:58:42;;;;;;;;;40.25;32.75;;;;;18.10;65.94;101257.72;5054444;28;45351;-75
2023/05/15 13:01:08;;;;;;;;;32.50;29.50;;;;;18.11;65.83;101256.75;5038601;28;45355;-76
2023/05/15 13:03:33;;;;;;;;;38.75;31.00;;;;;18.15;65.54;101257.41;5067020;28;45603;-77
2023/05/15 13:06:01;;;;;;;;;31.00;29.25;;;;;18.17;65.64;101239.16;5053999;28;47938;-76
2023/05/15 13:08:28;;;;;;;;;36.75;29.25;;;;;18.33;66.35;101253.41;5053905;28;45310;-74
2023/05/15 13:10:57;;;;;;;;;28.00;28.00;;;;;18.46;64.19;101247.97;5054146;28;45483;-76
2023/05/15 13:13:23;;;;;;;;;29.50;28.75;;;;;18.59;64.67;101253.44;5054083;28;45428;-77
2023/05/15 13:15:49;;;;;;;;;27.00;26.50;;;;;18.73;63.80;101254.19;5053932;28;45331;-76
2023/05/15 13:18:17;;;;;;;;;24.75;24.75;;;;;18.90;63.34;101250.25;5053736;28;45763;-76
2023/05/15 13:20:46;;;;;;;;;26.75;23.75;;;;;19.07;62.04;101249.88;5054036;28;45507;-75
2023/05/15 13:23:14;;;;;;;;;24.25;21.50;;;;;19.10;61.23;101262.41;5051553;28;45465;-75
2023/05/15 13:25:40;;;;;;;;;21.75;20.75;;;;;19.11;60.51;101256.84;5054117;28;45462;-75
2023/05/15 13:28:07;;;;;;;;;19.75;18.25;;;;;19.06;59.72;101255.44;5035359;28;45197;-75
2023/05/15 13:30:34;;;;;;;;;18.00;18.00;;;;;19.01;60.17;101252.19;5053809;28;45419;-74
2023/05/15 13:33:00;;;;;;;;;24.25;20.75;;;;;19.07;59.64;101259.88;5053673;28;45382;-75
2023/05/15 13:35:26;;;;;;;;;20.00;19.00;;;;;19.13;60.05;101268.47;5057280;28;45903;-74
2023/05/15 13:37:51;;;;;;;;;20.25;18.25;;;;;19.20;59.46;101267.06;5057078;28;45324;-77
2023/05/15 13:40:16;;;;;;;;;22.00;19.00;;;;;19.28;59.32;101259.19;5057460;28;45393;-77
2023/05/15 13:42:43;;;;;;;;;20.75;18.75;;;;;19.37;59.19;101265.81;5057701;28;45198;-76
2023/05/15 13:45:13;;;;;;;;;18.25;18.00;;;;;19.40;58.72;101261.97;5057226;28;46403;-75
2023/05/15 13:47:39;;;;;;;;;12.75;12.75;;;;;19.38;57.70;101255.78;5056906;28;45389;-76
2023/05/15 13:50:06;;;;;;;;;16.75;13.00;;;;;19.48;57.81;101260.44;5056862;28;45307;-77
2023/05/15 13:52:31;;;;;;;;;17.25;17.25;;;;;19.44;56.81;101249.88;5056718;28;45443;-75
2023/05/15 13:54:57;;;;;;;;;15.75;13.00;;;;;19.51;57.08;101249.34;5057166;28;46487;-77
2023/05/15 13:57:22;;;;;;;;;11.00;10.75;;;;;19.52;56.06;101250.22;5056894;28;47033;-76
2023/05/15 13:59:48;;;;;;;;;12.50;12.50;;;;;19.42;55.67;101228.25;5057165;28;45360;-75
2023/05/15 14:02:13;;;;;;;;;13.75;12.50;;;;;19.47;54.40;101246.94;5059820;28;45495;-75
2023/05/15 14:04:39;;;;;;;;;8.00;8.00;;;;;19.51;55.21;101253.91;5067120;28;46238;-76
2023/05/15 14:07:04;;;;;;;;;13.75;13.75;;;;;19.56;54.57;101251.75;5056688;28;45216;-76
2023/05/15 14:09:30;;;;;;;;;9.00;9.00;;;;;19.59;53.96;101248.75;5057177;28;45418;-75
2023/05/15 14:11:55;;;;;;;;;10.50;9.50;;;;;19.50;53.76;101239.44;5056556;28;45430;-76
2023/05/15 14:14:21;;;;;;;;;11.00;11.00;;;;;19.53;54.79;101257.41;5056602;28;46267;-76
2023/05/15 14:16:46;;;;;;;;;12.00;9.00;;;;;19.53;54.70;101260.97;5056957;28;45225;-75
2023/05/15 14:19:11;;;;;;;;;15.00;12.50;;;;;19.54;54.69;101250.97;5056518;28;45374;-75
2023/05/15 14:21:38;;;;;;;;;13.25;13.25;;;;;19.50;55.18;101238.56;5056303;28;45578;-75
2023/05/15 14:24:04;;;;;;;;;15.50;14.00;;;;;19.53;54.97;101249.22;5055970;28;45444;-75
2023/05/15 14:26:30;;;;;;;;;11.50;11.00;;;;;19.45;54.96;101251.63;5056186;28;45522;-74
2023/05/15 14:28:55;;;;;;;;;13.50;13.50;;;;;19.45;56.45;101248.91;5038446;28;45355;-77
2023/05/15 14:31:20;;;;;;;;;15.50;12.25;;;;;19.36;56.11;101245.03;5056042;28;45294;-77
2023/05/15 14:33:46;;;;;;;;;15.00;14.00;;;;;19.37;56.35;101257.66;5055365;28;46368;-76
2023/05/15 14:36:11;;;;;;;;;14.50;14.50;;;;;19.33;57.38;101255.25;5056346;28;45482;-77
2023/05/15 14:38:37;;;;;;;;;17.00;17.00;;;;;19.32;57.37;101258.94;5056221;28;46989;-76
2023/05/15 14:41:02;;;;;;;;;16.00;15.75;;;;;19.33;58.15;101268.84;5037420;28;46210;-76
2023/05/15 14:43:28;;;;;;;;;15.25;14.25;;;;;19.25;58.82;101264.84;5056427;28;45402;-76
2023/05/15 14:45:54;;;;;;;;;18.25;16.75;;;;;19.17;59.28;101275.41;5055623;28;45430;-74
2023/05/15 14:48:19;;;;;;;;;18.75;17.75;;;;;19.03;60.47;101281.00;5056492;28;45353;-76
2023/05/15 14:50:45;;;;;;;;;16.75;14.00;;;;;18.90;61.00;101283.72;5055895;28;45537;-76
2023/05/15 14:53:10;;;;;;;;;18.50;17.25;;;;;18.83;61.62;101290.59;5056100;28;45440;-76
2023/05/15 14:55:35;;;;;;;;;11.75;11.75;;;;;18.74;60.56;101285.81;5056208;28;45338;-76
2023/05/15 14:58:01;;;;;;;;;12.50;12.50;;;;;18.72;61.53;101281.44;5055963;28;45427;-77
2023/05/15 15:00:26;;;;;;;;;11.75;11.50;;;;;18.71;60.28;101291.47;5056219;28;45592;-76
2023/05/15 15:02:52;;;;;;;;;10.50;10.50;;;;;18.72;60.69;101285.03;5064848;28;45595;-76
2023/05/15 15:05:17;;;;;;;;;13.25;12.00;;;;;18.76;60.64;101281.13;5042510;28;45482;-76
2023/05/15 15:08:02;;;;;;;;;13.25;10.50;;;;;18.84;59.03;101280.59;5056483;28;45371;-76
2023/05/15 15:10:28;;;;;;;;;11.00;9.75;;;;;18.79;58.81;101289.06;5055176;28;45319;-76
2023/05/15 15:12:54;;;;;;;;;12.75;9.25;;;;;18.71;57.98;101288.75;5055655;28;45963;-74
2023/05/15 15:15:21;;;;;;;;;11.75;10.25;;;;;18.67;58.50;101284.50;5055128;28;45642;-81
2023/05/15 15:17:46;;;;;;;;;11.00;9.25;;;;;18.61;59.39;101275.94;5037859;28;45697;-76
2023/05/15 15:20:13;;;;;;;;;9.50;8.75;;;;;18.59;59.86;101291.47;5055458;28;45605;-78
2023/05/15 15:22:39;;;;;;;;;11.00;11.00;;;;;18.59;59.81;101286.03;5056067;28;46503;-75
2023/05/15 15:25:05;;;;;;;;;11.25;10.00;;;;;18.43;60.05;101275.34;5055573;28;45423;-77
2023/05/15 15:27:32;;;;;;;;;11.50;10.00;;;;;18.36;60.40;101269.47;5055557;28;45251;-76
2023/05/15 15:29:58;;;;;;;;;14.50;13.25;;;;;18.32;61.23;101286.06;5037153;28;45387;-76
2023/05/15 15:32:23;;;;;;;;;11.00;10.75;;;;;18.28;61.80;101290.00;5055066;28;46404;-75
2023/05/15 15:34:49;;;;;;;;;9.50;9.50;;;;;18.29;62.35;101297.16;5055307;28;45661;-76
2023/05/15 15:37:14;;;;;;;;;6.25;5.00;;;;;18.19;61.83;101296.06;5056027;28;45359;-76
2023/05/15 15:39:39;;;;;;;;;6.75;6.75;;;;;18.17;61.81;101298.88;5055367;28;45332;-76